createdAt,value
2023-05-12T00:03:14.715Z,1.45
2023-05-12T00:06:56.661Z,1.27
2023-05-12T00:10:38.662Z,1.48
2023-05-12T00:14:20.664Z,1.58
2023-05-12T00:18:02.499Z,1.33
2023-05-12T00:21:44.667Z,1.77
2023-05-12T00:25:26.630Z,1.83
2023-05-12T00:29:08.433Z,1.52
2023-05-12T00:32:50.310Z,1.10
2023-05-12T00:36:32.272Z,1.10
2023-05-12T00:40:14.195Z,1.60
2023-05-12T00:43:56.033Z,1.20
2023-05-12T00:47:38.039Z,1.55
2023-05-12T00:51:19.949Z,1.50
2023-05-12T00:55:02.368Z,1.20
2023-05-12T00:58:44.459Z,1.17
2023-05-12T01:02:26.418Z,1.20
2023-05-12T01:06:24.015Z,1.65
2023-05-12T01:10:23.367Z,1.42
2023-05-12T01:14:05.408Z,1.25
2023-05-12T01:18:01.627Z,1.88
2023-05-12T01:21:43.543Z,1.70
2023-05-12T01:25:28.693Z,1.92
2023-05-12T01:29:11.318Z,2.38
2023-05-12T01:32:53.447Z,1.88
2023-05-12T01:36:35.310Z,3.00
2023-05-12T01:40:18.158Z,2.50
2023-05-12T01:44:00.061Z,2.72
2023-05-12T01:47:41.872Z,3.88
2023-05-12T01:51:23.744Z,3.65
2023-05-12T01:55:06.011Z,3.78
2023-05-12T01:58:47.882Z,5.28
2023-05-12T02:02:31.570Z,5.28
2023-05-12T02:06:13.571Z,5.05
2023-05-12T02:09:55.399Z,4.85
2023-05-12T02:13:37.217Z,4.72
2023-05-12T02:17:19.037Z,3.15
2023-05-12T02:21:00.885Z,3.33
2023-05-12T02:24:42.668Z,2.80
2023-05-12T02:28:24.486Z,2.08
2023-05-12T02:32:06.616Z,1.88
2023-05-12T02:35:48.592Z,2.00
2023-05-12T02:39:30.498Z,1.90
2023-05-12T02:43:12.292Z,1.85
2023-05-12T02:46:54.086Z,1.55
2023-05-12T02:50:35.883Z,1.95
2023-05-12T02:54:17.686Z,1.92
2023-05-12T02:57:59.531Z,1.83
2023-05-12T03:01:41.345Z,1.95
2023-05-12T03:05:23.197Z,2.15
2023-05-12T03:09:05.234Z,1.90
2023-05-12T03:12:47.061Z,1.35
2023-05-12T03:16:28.866Z,1.75
2023-05-12T03:20:11.138Z,2.10
2023-05-12T03:23:53.080Z,1.85
2023-05-12T03:27:34.906Z,2.10
2023-05-12T03:31:17.182Z,2.13
2023-05-12T03:34:59.015Z,2.15
2023-05-12T03:38:40.905Z,2.08
2023-05-12T03:42:24.134Z,2.33
2023-05-12T03:46:06.098Z,1.70
2023-05-12T03:49:47.920Z,2.03
2023-05-12T03:53:30.039Z,2.15
2023-05-12T03:57:12.864Z,2.20
2023-05-12T04:00:57.009Z,1.85
2023-05-12T04:04:39.020Z,2.05
2023-05-12T04:08:20.986Z,2.22
2023-05-12T04:12:03.078Z,2.63
2023-05-12T04:15:44.930Z,2.35
2023-05-12T04:19:26.732Z,2.85
2023-05-12T04:23:08.572Z,4.55
2023-05-12T04:26:50.412Z,4.15
2023-05-12T04:30:32.528Z,3.92
2023-05-12T04:34:14.426Z,3.90
2023-05-12T04:37:56.250Z,4.45
2023-05-12T04:41:38.149Z,5.82
2023-05-12T04:45:20.319Z,5.47
2023-05-12T04:49:02.304Z,5.97
2023-05-12T04:52:44.219Z,5.32
2023-05-12T04:56:26.156Z,5.80
2023-05-12T05:00:09.226Z,7.35
2023-05-12T05:03:51.420Z,6.68
2023-05-12T05:07:33.405Z,7.10
2023-05-12T05:11:15.213Z,6.72
2023-05-12T05:14:57.097Z,6.97
2023-05-12T05:18:41.969Z,6.82
2023-05-12T05:22:23.837Z,8.25
2023-05-12T05:26:05.665Z,8.10
2023-05-12T05:29:47.469Z,8.52
2023-05-12T05:33:29.347Z,8.48
2023-05-12T05:37:11.167Z,8.07
2023-05-12T05:40:54.446Z,8.98
2023-05-12T05:44:36.647Z,8.50
2023-05-12T05:48:18.703Z,9.93
2023-05-12T05:52:00.601Z,9.38
2023-05-12T05:55:42.386Z,8.13
2023-05-12T05:59:24.479Z,9.25
2023-05-12T06:03:06.361Z,9.82
2023-05-12T06:06:48.309Z,9.38
2023-05-12T06:10:30.107Z,10.40
2023-05-12T06:14:11.980Z,10.70
2023-05-12T06:17:53.788Z,11.30
2023-05-12T06:21:35.753Z,10.93
2023-05-12T06:25:17.731Z,9.48
2023-05-12T06:28:59.616Z,9.90
2023-05-12T06:32:41.687Z,10.25
2023-05-12T06:36:23.959Z,10.40
2023-05-12T06:40:06.563Z,10.55
2023-05-12T06:43:48.371Z,9.82
2023-05-12T06:47:30.222Z,11.23
2023-05-12T06:51:13.166Z,10.48
2023-05-12T06:54:55.017Z,10.82
2023-05-12T06:58:37.096Z,9.68
2023-05-12T07:02:19.046Z,9.95
2023-05-12T07:06:01.056Z,8.95
2023-05-12T07:09:43.189Z,9.20
2023-05-12T07:13:25.038Z,8.20
2023-05-12T07:17:06.967Z,7.90
2023-05-12T07:20:49.162Z,7.88
2023-05-12T07:24:31.031Z,7.85
2023-05-12T07:28:12.965Z,8.10
2023-05-12T07:31:54.856Z,7.65
2023-05-12T07:35:36.739Z,8.27
2023-05-12T07:39:23.439Z,8.10
2023-05-12T07:43:05.535Z,7.28
2023-05-12T07:46:47.389Z,8.38
2023-05-12T07:50:29.333Z,7.97
2023-05-12T07:54:11.121Z,8.10
2023-05-12T07:57:52.964Z,7.82
2023-05-12T08:01:35.307Z,7.25
2023-05-12T08:05:17.246Z,8.13
2023-05-12T08:08:59.364Z,7.43
2023-05-12T08:12:42.412Z,7.95
2023-05-12T08:16:24.276Z,6.38
2023-05-12T08:20:06.938Z,7.18
2023-05-12T08:23:48.901Z,7.57
2023-05-12T08:27:30.799Z,6.18
2023-05-12T08:31:12.725Z,6.05
2023-05-12T08:34:54.927Z,5.63
2023-05-12T08:38:36.783Z,5.82
2023-05-12T08:42:39.505Z,6.03
2023-05-12T08:46:21.819Z,6.57
2023-05-12T08:50:05.523Z,6.68
2023-05-12T08:53:49.161Z,6.72
2023-05-12T08:57:31.875Z,5.97
2023-05-12T09:01:15.007Z,5.57
2023-05-12T09:04:57.213Z,5.57
2023-05-12T09:08:40.954Z,4.85
2023-05-12T09:12:24.965Z,4.47
2023-05-12T09:16:11.508Z,4.72
2023-05-12T09:19:53.420Z,4.25
2023-05-12T09:23:35.257Z,4.18
2023-05-12T09:27:27.968Z,4.25
2023-05-12T09:31:22.762Z,4.95
2023-05-12T09:35:11.564Z,5.00
2023-05-12T09:39:01.800Z,3.70
2023-05-12T09:42:43.862Z,3.78
2023-05-12T09:46:26.201Z,3.78
2023-05-12T09:50:10.277Z,2.95
2023-05-12T09:53:52.598Z,3.63
2023-05-12T09:57:39.774Z,3.13
2023-05-12T10:01:24.496Z,3.33
2023-05-12T10:05:08.522Z,3.30
2023-05-12T10:08:58.885Z,3.20
2023-05-12T10:12:41.667Z,2.78
2023-05-12T10:16:23.898Z,2.33
2023-05-12T10:20:07.682Z,2.50
2023-05-12T10:23:51.107Z,2.90
2023-05-12T10:27:33.976Z,2.70
2023-05-12T10:31:16.476Z,3.30
2023-05-12T10:35:08.824Z,2.80
2023-05-12T10:38:51.149Z,3.03
2023-05-12T10:42:41.547Z,2.90
2023-05-12T10:46:24.448Z,3.60
2023-05-12T10:50:06.975Z,3.03
2023-05-12T10:53:54.810Z,3.92
2023-05-12T10:57:51.894Z,3.72
2023-05-12T11:01:34.794Z,5.15
2023-05-12T11:05:18.724Z,4.75
2023-05-12T11:09:01.356Z,4.80
2023-05-12T11:12:44.976Z,4.63
2023-05-12T11:16:27.022Z,4.85
2023-05-12T11:20:12.070Z,5.03
2023-05-12T11:23:54.865Z,4.90
2023-05-12T11:27:42.360Z,4.22
2023-05-12T11:31:24.766Z,3.72
2023-05-12T11:35:15.366Z,3.15
2023-05-12T11:38:57.240Z,3.47
2023-05-12T11:42:41.358Z,2.80
2023-05-12T11:46:30.377Z,3.00
2023-05-12T11:50:12.288Z,3.63
2023-05-12T11:53:54.444Z,3.72
2023-05-12T11:57:36.512Z,3.50
2023-05-12T12:01:18.337Z,2.50
2023-05-12T12:05:00.906Z,2.47
2023-05-12T12:09:02.707Z,2.17
2023-05-12T12:12:46.398Z,3.03
2023-05-12T12:16:32.829Z,1.98
2023-05-12T12:20:18.843Z,1.63
2023-05-12T12:24:03.794Z,2.30
2023-05-12T12:27:45.909Z,2.47
2023-05-12T12:31:28.385Z,2.47
2023-05-12T12:35:11.604Z,2.00
2023-05-12T12:38:53.387Z,2.13
2023-05-12T12:42:37.233Z,2.40
2023-05-12T12:46:19.876Z,3.08
2023-05-12T12:50:01.837Z,2.10
2023-05-12T12:53:45.674Z,2.30
2023-05-12T12:57:27.688Z,1.92
2023-05-12T13:01:10.182Z,2.45
2023-05-12T13:04:52.151Z,2.22
2023-05-12T13:08:33.976Z,2.35
2023-05-12T13:12:15.907Z,2.67
2023-05-12T13:15:57.829Z,2.50
2023-05-12T13:19:40.088Z,2.30
2023-05-12T13:23:21.925Z,2.20
2023-05-12T13:27:08.228Z,2.47
2023-05-12T13:30:52.577Z,1.98
2023-05-12T13:34:34.746Z,1.90
2023-05-12T13:38:17.643Z,2.03
2023-05-12T13:42:00.188Z,2.55
2023-05-12T13:45:42.722Z,2.35
2023-05-12T13:49:24.713Z,2.65
2023-05-12T13:53:06.722Z,2.17
2023-05-12T13:56:48.721Z,1.80
2023-05-12T14:00:30.698Z,1.60
2023-05-12T14:04:12.880Z,1.88
2023-05-12T14:07:54.753Z,1.95
2023-05-12T14:11:37.067Z,2.30
2023-05-12T14:15:32.377Z,1.90
2023-05-12T14:19:18.395Z,2.22
2023-05-12T14:23:00.619Z,2.10
2023-05-12T14:26:42.526Z,1.52
2023-05-12T14:30:24.552Z,1.90
2023-05-12T14:34:06.506Z,2.42
2023-05-12T14:37:48.405Z,2.60
2023-05-12T14:41:30.245Z,2.35
2023-05-12T14:45:12.395Z,1.90
2023-05-12T14:48:54.568Z,2.35
2023-05-12T14:52:38.560Z,2.22
2023-05-12T14:56:20.667Z,2.35
2023-05-12T15:00:02.526Z,2.10
2023-05-12T15:03:44.656Z,2.17
2023-05-12T15:07:26.679Z,1.67
2023-05-12T15:11:08.579Z,1.90
2023-05-12T15:14:51.125Z,2.00
2023-05-12T15:18:33.014Z,1.50
2023-05-12T15:22:14.959Z,2.00
2023-05-12T15:25:58.112Z,2.05
2023-05-12T15:29:42.180Z,1.85
2023-05-12T15:33:25.010Z,1.65
2023-05-12T15:37:07.176Z,2.25
2023-05-12T15:40:49.313Z,2.25
2023-05-12T15:44:31.842Z,1.73
2023-05-12T15:48:13.679Z,1.90
2023-05-12T15:51:55.601Z,1.83
2023-05-12T15:55:37.540Z,1.90
2023-05-12T15:59:19.955Z,1.80
2023-05-12T16:03:02.106Z,1.67
2023-05-12T16:06:44.115Z,1.65
2023-05-12T16:10:26.095Z,1.90
2023-05-12T16:14:07.972Z,2.10
2023-05-12T16:17:49.805Z,2.08
2023-05-12T16:21:32.085Z,1.45
2023-05-12T16:25:14.457Z,1.80
2023-05-12T16:28:56.460Z,1.95
2023-05-12T16:32:38.368Z,2.10
2023-05-12T16:36:20.700Z,1.42
2023-05-12T16:40:02.568Z,2.08
2023-05-12T16:43:44.469Z,1.35
2023-05-12T16:47:26.598Z,1.65
2023-05-12T16:51:10.316Z,1.80
2023-05-12T16:54:53.205Z,2.20
2023-05-12T16:58:35.704Z,1.80
2023-05-12T17:02:17.876Z,2.28
2023-05-12T17:05:59.946Z,2.05
2023-05-12T17:09:41.893Z,2.50
2023-05-12T17:13:23.919Z,2.20
2023-05-12T17:17:06.091Z,2.45
2023-05-12T17:20:48.190Z,2.30
2023-05-12T17:24:30.502Z,2.47
2023-05-12T17:28:12.617Z,2.65
2023-05-12T17:31:55.023Z,2.35
2023-05-12T17:35:36.981Z,2.05
2023-05-12T17:39:19.149Z,2.45
2023-05-12T17:43:01.213Z,2.67
2023-05-12T17:46:43.512Z,2.80
2023-05-12T17:50:25.469Z,2.45
2023-05-12T17:54:08.052Z,2.47
2023-05-12T17:57:50.361Z,2.30
2023-05-12T18:01:32.549Z,1.80
2023-05-12T18:05:14.501Z,2.80
2023-05-12T18:08:56.710Z,2.70
2023-05-12T18:12:39.004Z,2.70
2023-05-12T18:16:28.412Z,2.45
2023-05-12T18:20:11.626Z,2.63
2023-05-12T18:23:53.523Z,2.60
2023-05-12T18:27:35.760Z,2.75
2023-05-12T18:31:20.038Z,2.25
2023-05-12T18:35:02.227Z,2.92
2023-05-12T18:38:44.301Z,2.30
2023-05-12T18:42:26.458Z,2.35
2023-05-12T18:46:08.388Z,2.70
2023-05-12T18:49:50.392Z,2.90
2023-05-12T18:53:32.979Z,2.70
2023-05-12T18:57:15.424Z,2.60
2023-05-12T19:00:58.087Z,2.58
2023-05-12T19:04:40.675Z,3.03
2023-05-12T19:08:22.916Z,2.92
2023-05-12T19:12:06.331Z,2.15
2023-05-12T19:15:48.952Z,2.88
2023-05-12T19:19:31.336Z,2.80
2023-05-12T19:23:13.641Z,3.00
2023-05-12T19:26:55.895Z,2.83
2023-05-12T19:30:37.960Z,3.08
2023-05-12T19:34:20.164Z,3.45
2023-05-12T19:38:02.024Z,3.25
2023-05-12T19:41:43.948Z,2.97
2023-05-12T19:45:25.916Z,2.88
2023-05-12T19:49:07.832Z,3.08
2023-05-12T19:52:51.253Z,3.10
2023-05-12T19:56:33.829Z,2.90
2023-05-12T20:00:16.022Z,3.38
2023-05-12T20:03:57.950Z,3.38
2023-05-12T20:07:40.267Z,3.38
2023-05-12T20:11:22.349Z,3.67
2023-05-12T20:15:04.655Z,4.22
2023-05-12T20:18:46.591Z,3.58
2023-05-12T20:22:28.512Z,3.10
2023-05-12T20:26:10.662Z,3.58
2023-05-12T20:29:52.894Z,3.75
2023-05-12T20:33:34.807Z,4.07
2023-05-12T20:37:17.378Z,4.40
2023-05-12T20:41:07.301Z,4.68
2023-05-12T20:44:49.530Z,4.00
2023-05-12T20:48:32.633Z,4.22
2023-05-12T20:52:14.660Z,4.90
2023-05-12T20:55:57.273Z,3.90
2023-05-12T20:59:42.477Z,4.65
2023-05-12T21:03:24.629Z,5.32
2023-05-12T21:07:06.840Z,6.18
2023-05-12T21:10:49.023Z,5.78
2023-05-12T21:14:30.899Z,6.80
2023-05-12T21:18:13.382Z,6.38
2023-05-12T21:21:55.347Z,7.03
2023-05-12T21:25:37.432Z,6.80
2023-05-12T21:29:19.366Z,6.18
2023-05-12T21:33:01.250Z,6.90
2023-05-12T21:36:43.168Z,6.78
2023-05-12T21:40:25.030Z,6.47
2023-05-12T21:44:08.185Z,6.20
2023-05-12T21:47:51.475Z,5.97
2023-05-12T21:51:33.489Z,7.03
2023-05-12T21:55:16.003Z,7.18
2023-05-12T21:58:57.807Z,6.43
2023-05-12T22:02:39.690Z,6.88
2023-05-12T22:06:21.528Z,7.25
2023-05-12T22:10:04.712Z,6.50
2023-05-12T22:13:46.542Z,7.22
2023-05-12T22:17:28.374Z,6.97
2023-05-12T22:21:10.855Z,6.95
2023-05-12T22:24:52.693Z,6.82
2023-05-12T22:28:34.594Z,7.20
2023-05-12T22:32:16.438Z,7.32
2023-05-12T22:36:00.030Z,6.93
2023-05-12T22:39:41.900Z,7.65
2023-05-12T22:43:23.779Z,7.32
2023-05-12T22:47:06.733Z,8.60
2023-05-12T22:50:48.625Z,7.32
2023-05-12T22:54:30.476Z,7.25
2023-05-12T22:58:12.356Z,7.18
2023-05-12T23:01:54.129Z,7.65
2023-05-12T23:05:36.011Z,6.68
2023-05-12T23:09:17.804Z,7.63
2023-05-12T23:12:59.780Z,6.50
2023-05-12T23:16:41.650Z,6.85
2023-05-12T23:20:23.697Z,7.13
2023-05-12T23:24:06.327Z,7.00
2023-05-12T23:27:48.133Z,7.00
2023-05-12T23:31:30.427Z,7.47
2023-05-12T23:35:12.298Z,7.03
2023-05-12T23:38:54.647Z,9.02
2023-05-12T23:42:36.491Z,8.45
2023-05-12T23:46:18.388Z,7.63
2023-05-12T23:50:00.301Z,8.57
2023-05-12T23:53:42.154Z,8.05
2023-05-12T23:57:24.182Z,7.15
